KFCS

Butts AAF (Fort Carson) Airport

Fort Carson, Colorado, USA
METAR KFCS 191458Z AUTO 35012KT 10SM CLR 18/10 A3021 RMK AO2 SLP186 T01780102 52012 $
Observed Flight Rules
Aug-19 @ 14:58 UTC (41 minutes ago) Visual Flight Rules
Wind Visibility Clouds
350° at 12 knots 10 miles
  • Clear skies
Temperatures Readings
Current 18°C / 64°F
Dewpoint 10°C / 50°F
Humidity 60%
Altimeter 30.21" Hg
Pressure 1018.6 hPa
Elevation 1789
METAR KFCS 191458Z AUTO 35012KT 10SM CLR 18/10 A3021 RMK AO2 SLP186 T01780102 52012 $
Observed Flight Rules
Aug-19 @ 14:58 UTC
(41 minutes ago)
VFR
Wind Visibility
350° at 12 knots 10 miles
Clouds
  • Clear skies
Temperature Dewpoint
18°C / 64°F 10°C / 50°F
Humidity Altimeter Pressure
60% 30.21" Hg 1018.6 hPa